sensor_id;sensor_type;location;lat;lon;timestamp;P1;durP1;ratioP1;P2;durP2;ratioP2
26864;SDS011;40618;51.166;10.322;2023-07-31T00:00:27;2.42;;;1.08;;
26864;SDS011;40618;51.166;10.322;2023-07-31T00:02:53;5.72;;;0.85;;
26864;SDS011;40618;51.166;10.322;2023-07-31T00:05:19;1.75;;;0.90;;
26864;SDS011;40618;51.166;10.322;2023-07-31T00:07:45;2.80;;;1.08;;
26864;SDS011;40618;51.166;10.322;2023-07-31T00:10:11;2.85;;;0.90;;
26864;SDS011;40618;51.166;10.322;2023-07-31T00:12:38;2.15;;;1.00;;
26864;SDS011;40618;51.166;10.322;2023-07-31T00:15:05;1.77;;;0.90;;
26864;SDS011;40618;51.166;10.322;2023-07-31T00:17:32;2.30;;;0.95;;
26864;SDS011;40618;51.166;10.322;2023-07-31T00:19:58;4.35;;;1.20;;
26864;SDS011;40618;51.166;10.322;2023-07-31T00:22:23;3.30;;;1.30;;
26864;SDS011;40618;51.166;10.322;2023-07-31T00:24:49;1.27;;;0.93;;
26864;SDS011;40618;51.166;10.322;2023-07-31T00:27:15;2.78;;;1.30;;
26864;SDS011;40618;51.166;10.322;2023-07-31T00:29:40;2.33;;;0.90;;
26864;SDS011;40618;51.166;10.322;2023-07-31T00:32:06;2.20;;;1.00;;
26864;SDS011;40618;51.166;10.322;2023-07-31T00:34:32;2.28;;;1.17;;
26864;SDS011;40618;51.166;10.322;2023-07-31T00:36:58;4.32;;;1.20;;
26864;SDS011;40618;51.166;10.322;2023-07-31T00:39:23;4.50;;;0.90;;
26864;SDS011;40618;51.166;10.322;2023-07-31T00:41:49;6.85;;;1.10;;
26864;SDS011;40618;51.166;10.322;2023-07-31T00:44:15;5.13;;;1.13;;
26864;SDS011;40618;51.166;10.322;2023-07-31T00:46:40;3.50;;;1.00;;
26864;SDS011;40618;51.166;10.322;2023-07-31T00:49:06;3.05;;;1.30;;
26864;SDS011;40618;51.166;10.322;2023-07-31T00:51:33;1.90;;;1.20;;
26864;SDS011;40618;51.166;10.322;2023-07-31T00:53:59;3.28;;;1.23;;
26864;SDS011;40618;51.166;10.322;2023-07-31T00:56:26;1.60;;;1.00;;
26864;SDS011;40618;51.166;10.322;2023-07-31T00:58:54;1.63;;;1.13;;
26864;SDS011;40618;51.166;10.322;2023-07-31T01:01:20;1.63;;;0.98;;
26864;SDS011;40618;51.166;10.322;2023-07-31T01:03:47;1.58;;;1.00;;
26864;SDS011;40618;51.166;10.322;2023-07-31T01:06:26;4.50;;;1.20;;
26864;SDS011;40618;51.166;10.322;2023-07-31T01:12:17;1.83;;;1.10;;
26864;SDS011;40618;51.166;10.322;2023-07-31T01:17:29;1.55;;;0.82;;
26864;SDS011;40618;51.166;10.322;2023-07-31T01:19:55;6.55;;;1.25;;
26864;SDS011;40618;51.166;10.322;2023-07-31T01:28:30;2.10;;;1.10;;
26864;SDS011;40618;51.166;10.322;2023-07-31T01:31:06;2.45;;;0.95;;
26864;SDS011;40618;51.166;10.322;2023-07-31T01:33:36;3.33;;;1.20;;
26864;SDS011;40618;51.166;10.322;2023-07-31T01:36:02;2.35;;;1.27;;
26864;SDS011;40618;51.166;10.322;2023-07-31T01:38:29;2.15;;;1.13;;
26864;SDS011;40618;51.166;10.322;2023-07-31T01:40:55;3.47;;;1.20;;
26864;SDS011;40618;51.166;10.322;2023-07-31T01:43:20;1.77;;;1.00;;
26864;SDS011;40618;51.166;10.322;2023-07-31T01:45:46;2.67;;;1.27;;
26864;SDS011;40618;51.166;10.322;2023-07-31T01:48:11;4.50;;;1.23;;
26864;SDS011;40618;51.166;10.322;2023-07-31T01:50:37;3.40;;;1.23;;
26864;SDS011;40618;51.166;10.322;2023-07-31T01:53:02;2.53;;;1.25;;
26864;SDS011;40618;51.166;10.322;2023-07-31T01:55:28;4.90;;;1.30;;
26864;SDS011;40618;51.166;10.322;2023-07-31T01:57:53;2.38;;;1.20;;
26864;SDS011;40618;51.166;10.322;2023-07-31T02:00:19;4.93;;;1.20;;
26864;SDS011;40618;51.166;10.322;2023-07-31T02:02:45;4.57;;;1.50;;
26864;SDS011;40618;51.166;10.322;2023-07-31T02:05:10;3.10;;;1.33;;
26864;SDS011;40618;51.166;10.322;2023-07-31T02:07:36;4.78;;;1.45;;
26864;SDS011;40618;51.166;10.322;2023-07-31T02:10:02;2.50;;;1.20;;
26864;SDS011;40618;51.166;10.322;2023-07-31T02:12:27;2.17;;;1.60;;
26864;SDS011;40618;51.166;10.322;2023-07-31T02:14:56;3.10;;;1.33;;
26864;SDS011;40618;51.166;10.322;2023-07-31T02:17:21;5.45;;;1.52;;
26864;SDS011;40618;51.166;10.322;2023-07-31T02:19:47;3.22;;;1.40;;
26864;SDS011;40618;51.166;10.322;2023-07-31T02:22:13;2.05;;;1.30;;
26864;SDS011;40618;51.166;10.322;2023-07-31T02:24:39;2.53;;;1.30;;
26864;SDS011;40618;51.166;10.322;2023-07-31T02:27:04;4.60;;;1.92;;
26864;SDS011;40618;51.166;10.322;2023-07-31T02:29:30;5.50;;;1.42;;
26864;SDS011;40618;51.166;10.322;2023-07-31T02:31:56;3.63;;;1.42;;
26864;SDS011;40618;51.166;10.322;2023-07-31T02:34:21;4.22;;;1.40;;
26864;SDS011;40618;51.166;10.322;2023-07-31T02:36:47;2.33;;;1.40;;
26864;SDS011;40618;51.166;10.322;2023-07-31T02:39:12;7.70;;;1.80;;
26864;SDS011;40618;51.166;10.322;2023-07-31T02:41:38;2.92;;;1.35;;
26864;SDS011;40618;51.166;10.322;2023-07-31T02:44:03;3.22;;;1.40;;
26864;SDS011;40618;51.166;10.322;2023-07-31T02:46:29;3.70;;;1.40;;
26864;SDS011;40618;51.166;10.322;2023-07-31T02:48:55;2.90;;;1.10;;
26864;SDS011;40618;51.166;10.322;2023-07-31T02:51:20;3.42;;;1.20;;
26864;SDS011;40618;51.166;10.322;2023-07-31T02:53:46;2.78;;;1.67;;
26864;SDS011;40618;51.166;10.322;2023-07-31T02:56:13;4.47;;;1.77;;
26864;SDS011;40618;51.166;10.322;2023-07-31T02:58:38;4.90;;;1.45;;
26864;SDS011;40618;51.166;10.322;2023-07-31T03:01:04;1.88;;;1.48;;
26864;SDS011;40618;51.166;10.322;2023-07-31T03:03:29;4.75;;;1.50;;
26864;SDS011;40618;51.166;10.322;2023-07-31T03:05:55;3.90;;;1.40;;
26864;SDS011;40618;51.166;10.322;2023-07-31T03:08:20;3.33;;;1.52;;
26864;SDS011;40618;51.166;10.322;2023-07-31T03:10:46;3.33;;;1.27;;
26864;SDS011;40618;51.166;10.322;2023-07-31T03:13:12;3.50;;;1.20;;
26864;SDS011;40618;51.166;10.322;2023-07-31T03:15:37;2.92;;;1.65;;
26864;SDS011;40618;51.166;10.322;2023-07-31T03:18:03;4.32;;;1.38;;
26864;SDS011;40618;51.166;10.322;2023-07-31T03:20:28;2.33;;;1.20;;
26864;SDS011;40618;51.166;10.322;2023-07-31T03:22:54;6.40;;;1.40;;
26864;SDS011;40618;51.166;10.322;2023-07-31T03:25:19;3.00;;;1.45;;
26864;SDS011;40618;51.166;10.322;2023-07-31T03:27:45;2.95;;;1.33;;
26864;SDS011;40618;51.166;10.322;2023-07-31T03:30:10;5.38;;;2.03;;
26864;SDS011;40618;51.166;10.322;2023-07-31T03:32:36;4.15;;;1.80;;
26864;SDS011;40618;51.166;10.322;2023-07-31T03:35:02;4.68;;;1.50;;
26864;SDS011;40618;51.166;10.322;2023-07-31T03:37:28;4.55;;;1.50;;
26864;SDS011;40618;51.166;10.322;2023-07-31T03:39:54;2.03;;;1.25;;
26864;SDS011;40618;51.166;10.322;2023-07-31T03:42:19;3.05;;;1.27;;
26864;SDS011;40618;51.166;10.322;2023-07-31T03:44:45;2.50;;;1.40;;
26864;SDS011;40618;51.166;10.322;2023-07-31T03:47:10;2.53;;;1.35;;
26864;SDS011;40618;51.166;10.322;2023-07-31T03:49:36;4.18;;;1.75;;
26864;SDS011;40618;51.166;10.322;2023-07-31T03:52:02;4.13;;;1.52;;
26864;SDS011;40618;51.166;10.322;2023-07-31T03:54:28;3.83;;;1.50;;
26864;SDS011;40618;51.166;10.322;2023-07-31T03:56:53;4.10;;;1.50;;
26864;SDS011;40618;51.166;10.322;2023-07-31T03:59:19;4.20;;;1.77;;
26864;SDS011;40618;51.166;10.322;2023-07-31T04:01:44;5.60;;;1.75;;
26864;SDS011;40618;51.166;10.322;2023-07-31T04:04:10;3.15;;;1.38;;
26864;SDS011;40618;51.166;10.322;2023-07-31T04:06:35;3.85;;;1.40;;
26864;SDS011;40618;51.166;10.322;2023-07-31T04:09:02;4.53;;;1.65;;
26864;SDS011;40618;51.166;10.322;2023-07-31T04:11:28;4.88;;;1.48;;
26864;SDS011;40618;51.166;10.322;2023-07-31T04:13:53;5.47;;;1.40;;
26864;SDS011;40618;51.166;10.322;2023-07-31T04:16:19;2.97;;;1.88;;
26864;SDS011;40618;51.166;10.322;2023-07-31T04:18:44;4.30;;;1.85;;
26864;SDS011;40618;51.166;10.322;2023-07-31T04:21:10;2.20;;;1.50;;
26864;SDS011;40618;51.166;10.322;2023-07-31T04:23:35;2.05;;;1.40;;
26864;SDS011;40618;51.166;10.322;2023-07-31T04:26:01;3.90;;;1.48;;
26864;SDS011;40618;51.166;10.322;2023-07-31T04:28:27;2.75;;;1.70;;
26864;SDS011;40618;51.166;10.322;2023-07-31T04:30:52;4.78;;;1.33;;
26864;SDS011;40618;51.166;10.322;2023-07-31T04:33:18;3.47;;;1.60;;
26864;SDS011;40618;51.166;10.322;2023-07-31T04:35:51;3.67;;;1.30;;
26864;SDS011;40618;51.166;10.322;2023-07-31T04:38:18;2.45;;;1.50;;
26864;SDS011;40618;51.166;10.322;2023-07-31T04:40:46;5.32;;;1.60;;
26864;SDS011;40618;51.166;10.322;2023-07-31T04:43:12;3.35;;;1.38;;
26864;SDS011;40618;51.166;10.322;2023-07-31T04:45:38;4.95;;;1.48;;
26864;SDS011;40618;51.166;10.322;2023-07-31T04:48:03;2.72;;;1.40;;
26864;SDS011;40618;51.166;10.322;2023-07-31T04:50:29;4.05;;;1.58;;
26864;SDS011;40618;51.166;10.322;2023-07-31T04:52:55;3.83;;;1.30;;
26864;SDS011;40618;51.166;10.322;2023-07-31T04:55:22;2.67;;;1.60;;
26864;SDS011;40618;51.166;10.322;2023-07-31T04:57:47;4.47;;;1.60;;
26864;SDS011;40618;51.166;10.322;2023-07-31T05:00:13;3.83;;;1.70;;
26864;SDS011;40618;51.166;10.322;2023-07-31T05:02:39;5.88;;;1.77;;
26864;SDS011;40618;51.166;10.322;2023-07-31T05:05:04;3.70;;;1.80;;
26864;SDS011;40618;51.166;10.322;2023-07-31T05:07:30;3.20;;;1.52;;
26864;SDS011;40618;51.166;10.322;2023-07-31T05:09:56;4.30;;;1.45;;
26864;SDS011;40618;51.166;10.322;2023-07-31T05:12:21;3.80;;;1.63;;
26864;SDS011;40618;51.166;10.322;2023-07-31T05:14:47;3.45;;;1.77;;
26864;SDS011;40618;51.166;10.322;2023-07-31T05:17:12;2.55;;;1.40;;
26864;SDS011;40618;51.166;10.322;2023-07-31T05:19:38;3.28;;;1.85;;
26864;SDS011;40618;51.166;10.322;2023-07-31T05:22:04;3.97;;;1.25;;
26864;SDS011;40618;51.166;10.322;2023-07-31T05:24:29;4.35;;;1.90;;
26864;SDS011;40618;51.166;10.322;2023-07-31T05:26:55;3.22;;;1.58;;
26864;SDS011;40618;51.166;10.322;2023-07-31T05:29:20;5.82;;;1.83;;
26864;SDS011;40618;51.166;10.322;2023-07-31T05:31:46;3.47;;;1.73;;
26864;SDS011;40618;51.166;10.322;2023-07-31T05:34:12;3.38;;;1.50;;
26864;SDS011;40618;51.166;10.322;2023-07-31T05:36:37;3.83;;;1.80;;
26864;SDS011;40618;51.166;10.322;2023-07-31T05:39:03;2.90;;;1.50;;
26864;SDS011;40618;51.166;10.322;2023-07-31T05:41:32;3.80;;;1.52;;
26864;SDS011;40618;51.166;10.322;2023-07-31T05:43:57;5.35;;;1.70;;
26864;SDS011;40618;51.166;10.322;2023-07-31T05:46:23;4.57;;;1.40;;
26864;SDS011;40618;51.166;10.322;2023-07-31T05:48:48;2.88;;;1.33;;
26864;SDS011;40618;51.166;10.322;2023-07-31T05:51:14;3.67;;;1.50;;
26864;SDS011;40618;51.166;10.322;2023-07-31T05:53:40;2.58;;;1.27;;
26864;SDS011;40618;51.166;10.322;2023-07-31T05:56:06;2.88;;;1.42;;
26864;SDS011;40618;51.166;10.322;2023-07-31T05:58:31;4.10;;;1.60;;
26864;SDS011;40618;51.166;10.322;2023-07-31T06:00:57;2.35;;;1.52;;
26864;SDS011;40618;51.166;10.322;2023-07-31T06:03:22;1.90;;;1.30;;
26864;SDS011;40618;51.166;10.322;2023-07-31T06:05:48;3.25;;;1.40;;
26864;SDS011;40618;51.166;10.322;2023-07-31T06:08:14;2.42;;;1.20;;
26864;SDS011;40618;51.166;10.322;2023-07-31T06:10:39;6.32;;;1.55;;
26864;SDS011;40618;51.166;10.322;2023-07-31T06:13:05;2.58;;;1.35;;
26864;SDS011;40618;51.166;10.322;2023-07-31T06:15:30;3.38;;;1.50;;
26864;SDS011;40618;51.166;10.322;2023-07-31T06:17:56;1.67;;;1.30;;
26864;SDS011;40618;51.166;10.322;2023-07-31T06:20:22;5.50;;;2.33;;
26864;SDS011;40618;51.166;10.322;2023-07-31T06:22:48;3.25;;;1.52;;
26864;SDS011;40618;51.166;10.322;2023-07-31T06:25:13;3.40;;;1.80;;
26864;SDS011;40618;51.166;10.322;2023-07-31T06:27:39;5.28;;;1.88;;
26864;SDS011;40618;51.166;10.322;2023-07-31T06:30:05;3.00;;;1.30;;
26864;SDS011;40618;51.166;10.322;2023-07-31T06:32:31;4.15;;;1.60;;
26864;SDS011;40618;51.166;10.322;2023-07-31T06:34:57;5.28;;;1.65;;
26864;SDS011;40618;51.166;10.322;2023-07-31T06:37:23;5.22;;;1.83;;
26864;SDS011;40618;51.166;10.322;2023-07-31T06:39:48;4.32;;;1.63;;
26864;SDS011;40618;51.166;10.322;2023-07-31T06:42:14;2.70;;;2.05;;
26864;SDS011;40618;51.166;10.322;2023-07-31T06:44:39;2.75;;;1.60;;
26864;SDS011;40618;51.166;10.322;2023-07-31T06:47:05;3.58;;;1.35;;
26864;SDS011;40618;51.166;10.322;2023-07-31T06:49:30;5.97;;;2.13;;
26864;SDS011;40618;51.166;10.322;2023-07-31T06:51:56;4.15;;;1.58;;
26864;SDS011;40618;51.166;10.322;2023-07-31T06:54:22;4.55;;;1.70;;
26864;SDS011;40618;51.166;10.322;2023-07-31T06:56:47;3.83;;;1.90;;
26864;SDS011;40618;51.166;10.322;2023-07-31T06:59:13;6.15;;;1.80;;
26864;SDS011;40618;51.166;10.322;2023-07-31T07:01:38;4.53;;;1.65;;
26864;SDS011;40618;51.166;10.322;2023-07-31T07:04:04;3.58;;;1.80;;
26864;SDS011;40618;51.166;10.322;2023-07-31T07:06:29;3.65;;;1.70;;
26864;SDS011;40618;51.166;10.322;2023-07-31T07:08:55;2.45;;;1.85;;
26864;SDS011;40618;51.166;10.322;2023-07-31T07:11:20;5.63;;;1.90;;
26864;SDS011;40618;51.166;10.322;2023-07-31T07:13:46;5.70;;;2.22;;
26864;SDS011;40618;51.166;10.322;2023-07-31T07:16:12;2.75;;;1.52;;
26864;SDS011;40618;51.166;10.322;2023-07-31T07:18:37;4.15;;;1.70;;
26864;SDS011;40618;51.166;10.322;2023-07-31T07:21:03;4.07;;;1.50;;
26864;SDS011;40618;51.166;10.322;2023-07-31T07:23:28;2.88;;;1.60;;
26864;SDS011;40618;51.166;10.322;2023-07-31T07:25:54;4.10;;;1.67;;
26864;SDS011;40618;51.166;10.322;2023-07-31T07:28:19;3.13;;;1.63;;
26864;SDS011;40618;51.166;10.322;2023-07-31T07:30:45;4.88;;;2.05;;
26864;SDS011;40618;51.166;10.322;2023-07-31T07:33:19;3.60;;;1.90;;
26864;SDS011;40618;51.166;10.322;2023-07-31T07:35:45;5.45;;;1.80;;
26864;SDS011;40618;51.166;10.322;2023-07-31T07:38:11;3.08;;;1.65;;
26864;SDS011;40618;51.166;10.322;2023-07-31T07:40:39;3.83;;;1.90;;
26864;SDS011;40618;51.166;10.322;2023-07-31T07:43:05;3.35;;;1.75;;
26864;SDS011;40618;51.166;10.322;2023-07-31T07:45:31;3.35;;;1.60;;
26864;SDS011;40618;51.166;10.322;2023-07-31T07:47:56;3.25;;;1.88;;
26864;SDS011;40618;51.166;10.322;2023-07-31T07:50:23;4.10;;;2.08;;
26864;SDS011;40618;51.166;10.322;2023-07-31T07:52:48;4.57;;;1.83;;
26864;SDS011;40618;51.166;10.322;2023-07-31T07:55:14;6.15;;;1.90;;
26864;SDS011;40618;51.166;10.322;2023-07-31T07:57:39;5.78;;;2.13;;
26864;SDS011;40618;51.166;10.322;2023-07-31T08:00:05;3.70;;;2.30;;
26864;SDS011;40618;51.166;10.322;2023-07-31T08:02:31;3.03;;;1.77;;
26864;SDS011;40618;51.166;10.322;2023-07-31T08:04:57;4.90;;;2.25;;
26864;SDS011;40618;51.166;10.322;2023-07-31T08:07:23;5.13;;;1.88;;
26864;SDS011;40618;51.166;10.322;2023-07-31T08:09:48;4.63;;;2.22;;
26864;SDS011;40618;51.166;10.322;2023-07-31T08:12:14;7.72;;;2.10;;
26864;SDS011;40618;51.166;10.322;2023-07-31T08:14:39;4.30;;;2.17;;
26864;SDS011;40618;51.166;10.322;2023-07-31T08:17:05;4.00;;;2.13;;
26864;SDS011;40618;51.166;10.322;2023-07-31T08:19:30;2.55;;;1.63;;
26864;SDS011;40618;51.166;10.322;2023-07-31T08:21:56;2.95;;;1.80;;
26864;SDS011;40618;51.166;10.322;2023-07-31T08:24:21;3.05;;;1.92;;
26864;SDS011;40618;51.166;10.322;2023-07-31T08:26:47;5.55;;;2.45;;
26864;SDS011;40618;51.166;10.322;2023-07-31T08:29:13;1.70;;;1.50;;
26864;SDS011;40618;51.166;10.322;2023-07-31T08:31:39;6.47;;;2.03;;
26864;SDS011;40618;51.166;10.322;2023-07-31T08:34:04;3.33;;;1.80;;
26864;SDS011;40618;51.166;10.322;2023-07-31T08:36:30;6.70;;;2.83;;
26864;SDS011;40618;51.166;10.322;2023-07-31T08:38:55;4.80;;;2.20;;
26864;SDS011;40618;51.166;10.322;2023-07-31T08:41:21;4.35;;;1.95;;
26864;SDS011;40618;51.166;10.322;2023-07-31T08:43:46;3.67;;;1.80;;
26864;SDS011;40618;51.166;10.322;2023-07-31T08:46:14;6.57;;;2.50;;
26864;SDS011;40618;51.166;10.322;2023-07-31T08:48:41;5.65;;;1.88;;
26864;SDS011;40618;51.166;10.322;2023-07-31T08:51:09;3.53;;;2.00;;
26864;SDS011;40618;51.166;10.322;2023-07-31T08:53:35;5.60;;;2.30;;
26864;SDS011;40618;51.166;10.322;2023-07-31T08:56:00;4.10;;;2.25;;
26864;SDS011;40618;51.166;10.322;2023-07-31T08:58:29;5.05;;;1.90;;
26864;SDS011;40618;51.166;10.322;2023-07-31T09:00:58;6.30;;;1.97;;
26864;SDS011;40618;51.166;10.322;2023-07-31T09:03:33;4.98;;;2.03;;
26864;SDS011;40618;51.166;10.322;2023-07-31T09:06:00;5.53;;;2.15;;
26864;SDS011;40618;51.166;10.322;2023-07-31T09:08:30;4.65;;;2.30;;
26864;SDS011;40618;51.166;10.322;2023-07-31T09:10:58;3.38;;;1.92;;
26864;SDS011;40618;51.166;10.322;2023-07-31T09:13:28;6.50;;;2.83;;
26864;SDS011;40618;51.166;10.322;2023-07-31T09:15:55;4.22;;;2.70;;
26864;SDS011;40618;51.166;10.322;2023-07-31T09:18:21;4.22;;;2.30;;
26864;SDS011;40618;51.166;10.322;2023-07-31T09:21:06;3.65;;;2.03;;
26864;SDS011;40618;51.166;10.322;2023-07-31T09:23:45;6.53;;;2.70;;
26864;SDS011;40618;51.166;10.322;2023-07-31T09:29:05;5.85;;;2.58;;
26864;SDS011;40618;51.166;10.322;2023-07-31T09:31:43;6.03;;;2.05;;
26864;SDS011;40618;51.166;10.322;2023-07-31T09:34:10;4.93;;;2.65;;
26864;SDS011;40618;51.166;10.322;2023-07-31T09:36:43;5.55;;;2.33;;
26864;SDS011;40618;51.166;10.322;2023-07-31T09:39:11;5.47;;;2.40;;
26864;SDS011;40618;51.166;10.322;2023-07-31T09:41:38;4.68;;;2.05;;
26864;SDS011;40618;51.166;10.322;2023-07-31T09:44:06;3.75;;;2.10;;
26864;SDS011;40618;51.166;10.322;2023-07-31T09:46:34;5.10;;;2.35;;
26864;SDS011;40618;51.166;10.322;2023-07-31T09:49:11;4.10;;;1.90;;
26864;SDS011;40618;51.166;10.322;2023-07-31T09:51:40;4.15;;;2.40;;
26864;SDS011;40618;51.166;10.322;2023-07-31T09:56:44;3.65;;;2.03;;
26864;SDS011;40618;51.166;10.322;2023-07-31T09:59:17;4.47;;;2.30;;
26864;SDS011;40618;51.166;10.322;2023-07-31T10:01:45;8.60;;;2.15;;
26864;SDS011;40618;51.166;10.322;2023-07-31T10:04:12;5.07;;;2.00;;
26864;SDS011;40618;51.166;10.322;2023-07-31T10:06:39;6.15;;;3.47;;
26864;SDS011;40618;51.166;10.322;2023-07-31T10:09:11;5.88;;;2.42;;
26864;SDS011;40618;51.166;10.322;2023-07-31T10:11:42;4.60;;;2.20;;
26864;SDS011;40618;51.166;10.322;2023-07-31T10:14:16;3.08;;;2.38;;
26864;SDS011;40618;51.166;10.322;2023-07-31T10:16:45;5.50;;;3.30;;
26864;SDS011;40618;51.166;10.322;2023-07-31T10:19:11;5.88;;;3.00;;
26864;SDS011;40618;51.166;10.322;2023-07-31T10:21:37;4.68;;;2.60;;
26864;SDS011;40618;51.166;10.322;2023-07-31T10:24:03;8.00;;;2.40;;
26864;SDS011;40618;51.166;10.322;2023-07-31T10:26:31;4.32;;;2.40;;
26864;SDS011;40618;51.166;10.322;2023-07-31T10:29:00;3.65;;;2.55;;
26864;SDS011;40618;51.166;10.322;2023-07-31T10:31:27;3.72;;;2.28;;
26864;SDS011;40618;51.166;10.322;2023-07-31T10:33:54;4.07;;;2.38;;
26864;SDS011;40618;51.166;10.322;2023-07-31T10:36:22;5.57;;;2.60;;
26864;SDS011;40618;51.166;10.322;2023-07-31T10:38:51;6.22;;;2.70;;
26864;SDS011;40618;51.166;10.322;2023-07-31T10:41:17;5.10;;;2.38;;
26864;SDS011;40618;51.166;10.322;2023-07-31T10:43:42;3.38;;;2.17;;
26864;SDS011;40618;51.166;10.322;2023-07-31T10:46:11;4.45;;;2.65;;
26864;SDS011;40618;51.166;10.322;2023-07-31T10:48:39;3.25;;;2.25;;
26864;SDS011;40618;51.166;10.322;2023-07-31T10:51:15;3.92;;;2.67;;
26864;SDS011;40618;51.166;10.322;2023-07-31T10:53:43;6.05;;;2.80;;
26864;SDS011;40618;51.166;10.322;2023-07-31T10:56:09;5.07;;;3.08;;
26864;SDS011;40618;51.166;10.322;2023-07-31T10:58:40;4.35;;;2.45;;
26864;SDS011;40618;51.166;10.322;2023-07-31T11:01:09;5.72;;;2.67;;
26864;SDS011;40618;51.166;10.322;2023-07-31T11:03:43;5.10;;;2.85;;
26864;SDS011;40618;51.166;10.322;2023-07-31T11:06:14;7.25;;;3.30;;
26864;SDS011;40618;51.166;10.322;2023-07-31T11:08:42;5.93;;;3.10;;
26864;SDS011;40618;51.166;10.322;2023-07-31T11:13:44;4.97;;;2.60;;
26864;SDS011;40618;51.166;10.322;2023-07-31T11:16:19;4.28;;;2.78;;
26864;SDS011;40618;51.166;10.322;2023-07-31T11:18:50;4.47;;;2.47;;
26864;SDS011;40618;51.166;10.322;2023-07-31T11:21:19;5.28;;;2.80;;
26864;SDS011;40618;51.166;10.322;2023-07-31T11:23:50;5.72;;;2.72;;
26864;SDS011;40618;51.166;10.322;2023-07-31T11:26:22;4.32;;;2.75;;
26864;SDS011;40618;51.166;10.322;2023-07-31T11:28:49;6.95;;;3.60;;
26864;SDS011;40618;51.166;10.322;2023-07-31T11:31:16;7.43;;;2.80;;
26864;SDS011;40618;51.166;10.322;2023-07-31T11:33:43;3.95;;;2.47;;
26864;SDS011;40618;51.166;10.322;2023-07-31T11:36:18;4.95;;;2.80;;
26864;SDS011;40618;51.166;10.322;2023-07-31T11:38:45;5.43;;;2.75;;
26864;SDS011;40618;51.166;10.322;2023-07-31T11:41:13;7.07;;;2.78;;
26864;SDS011;40618;51.166;10.322;2023-07-31T11:43:43;4.05;;;2.50;;
26864;SDS011;40618;51.166;10.322;2023-07-31T11:46:10;4.32;;;2.33;;
26864;SDS011;40618;51.166;10.322;2023-07-31T11:48:36;5.00;;;2.65;;
26864;SDS011;40618;51.166;10.322;2023-07-31T11:51:03;4.70;;;3.10;;
26864;SDS011;40618;51.166;10.322;2023-07-31T11:53:37;6.55;;;2.22;;
26864;SDS011;40618;51.166;10.322;2023-07-31T11:56:09;5.50;;;2.22;;
26864;SDS011;40618;51.166;10.322;2023-07-31T11:58:38;4.20;;;2.00;;
26864;SDS011;40618;51.166;10.322;2023-07-31T12:01:06;3.75;;;2.35;;
26864;SDS011;40618;51.166;10.322;2023-07-31T12:03:32;4.82;;;2.50;;
26864;SDS011;40618;51.166;10.322;2023-07-31T12:06:00;3.28;;;2.15;;
26864;SDS011;40618;51.166;10.322;2023-07-31T12:08:26;3.72;;;2.15;;
26864;SDS011;40618;51.166;10.322;2023-07-31T12:10:52;3.30;;;2.13;;
26864;SDS011;40618;51.166;10.322;2023-07-31T12:13:23;3.88;;;2.20;;
26864;SDS011;40618;51.166;10.322;2023-07-31T12:15:55;4.78;;;2.00;;
26864;SDS011;40618;51.166;10.322;2023-07-31T12:18:23;6.30;;;2.05;;
26864;SDS011;40618;51.166;10.322;2023-07-31T12:20:54;3.67;;;2.17;;
26864;SDS011;40618;51.166;10.322;2023-07-31T12:23:26;3.92;;;2.50;;
26864;SDS011;40618;51.166;10.322;2023-07-31T12:28:59;2.95;;;1.98;;
26864;SDS011;40618;51.166;10.322;2023-07-31T12:31:25;2.58;;;1.73;;
26864;SDS011;40618;51.166;10.322;2023-07-31T12:33:54;2.50;;;1.65;;
26864;SDS011;40618;51.166;10.322;2023-07-31T12:36:22;5.53;;;2.03;;
26864;SDS011;40618;51.166;10.322;2023-07-31T12:38:49;2.83;;;1.73;;
26864;SDS011;40618;51.166;10.322;2023-07-31T12:41:16;2.35;;;1.80;;
26864;SDS011;40618;51.166;10.322;2023-07-31T12:43:43;3.53;;;1.92;;
26864;SDS011;40618;51.166;10.322;2023-07-31T12:46:10;2.03;;;1.77;;
26864;SDS011;40618;51.166;10.322;2023-07-31T12:48:39;3.85;;;1.70;;
26864;SDS011;40618;51.166;10.322;2023-07-31T12:51:06;2.20;;;1.42;;
26864;SDS011;40618;51.166;10.322;2023-07-31T12:53:32;3.42;;;1.85;;
26864;SDS011;40618;51.166;10.322;2023-07-31T12:55:58;3.10;;;1.80;;
26864;SDS011;40618;51.166;10.322;2023-07-31T12:58:24;5.43;;;2.05;;
26864;SDS011;40618;51.166;10.322;2023-07-31T13:00:50;2.45;;;1.83;;
26864;SDS011;40618;51.166;10.322;2023-07-31T13:03:16;2.60;;;1.80;;
26864;SDS011;40618;51.166;10.322;2023-07-31T13:05:42;3.80;;;1.88;;
26864;SDS011;40618;51.166;10.322;2023-07-31T13:08:07;2.00;;;1.60;;
26864;SDS011;40618;51.166;10.322;2023-07-31T13:10:33;3.90;;;1.60;;
26864;SDS011;40618;51.166;10.322;2023-07-31T13:12:59;4.63;;;2.33;;
26864;SDS011;40618;51.166;10.322;2023-07-31T13:15:24;5.13;;;2.08;;
26864;SDS011;40618;51.166;10.322;2023-07-31T13:17:50;3.30;;;1.92;;
26864;SDS011;40618;51.166;10.322;2023-07-31T13:20:16;4.25;;;2.75;;
26864;SDS011;40618;51.166;10.322;2023-07-31T13:22:41;4.68;;;2.20;;
26864;SDS011;40618;51.166;10.322;2023-07-31T13:25:07;5.18;;;2.58;;
26864;SDS011;40618;51.166;10.322;2023-07-31T13:27:34;2.97;;;1.90;;
26864;SDS011;40618;51.166;10.322;2023-07-31T13:30:00;5.22;;;2.33;;
26864;SDS011;40618;51.166;10.322;2023-07-31T13:32:25;4.03;;;2.20;;
26864;SDS011;40618;51.166;10.322;2023-07-31T13:34:51;5.22;;;2.47;;
26864;SDS011;40618;51.166;10.322;2023-07-31T13:37:17;5.72;;;2.30;;
26864;SDS011;40618;51.166;10.322;2023-07-31T13:39:42;5.53;;;2.50;;
26864;SDS011;40618;51.166;10.322;2023-07-31T13:42:08;3.72;;;2.33;;
26864;SDS011;40618;51.166;10.322;2023-07-31T13:44:39;5.78;;;2.72;;
26864;SDS011;40618;51.166;10.322;2023-07-31T13:47:06;4.37;;;2.40;;
26864;SDS011;40618;51.166;10.322;2023-07-31T13:49:34;4.63;;;2.33;;
26864;SDS011;40618;51.166;10.322;2023-07-31T13:52:00;3.63;;;2.22;;
26864;SDS011;40618;51.166;10.322;2023-07-31T13:54:26;3.72;;;2.28;;
26864;SDS011;40618;51.166;10.322;2023-07-31T13:56:52;5.45;;;2.63;;
26864;SDS011;40618;51.166;10.322;2023-07-31T13:59:18;5.55;;;2.58;;
26864;SDS011;40618;51.166;10.322;2023-07-31T14:01:44;4.13;;;2.47;;
26864;SDS011;40618;51.166;10.322;2023-07-31T14:04:10;4.18;;;2.50;;
26864;SDS011;40618;51.166;10.322;2023-07-31T14:06:36;4.43;;;2.03;;
26864;SDS011;40618;51.166;10.322;2023-07-31T14:09:02;5.35;;;2.38;;
26864;SDS011;40618;51.166;10.322;2023-07-31T14:11:28;8.70;;;2.63;;
26864;SDS011;40618;51.166;10.322;2023-07-31T14:13:56;5.13;;;2.38;;
26864;SDS011;40618;51.166;10.322;2023-07-31T14:16:22;5.18;;;2.63;;
26864;SDS011;40618;51.166;10.322;2023-07-31T14:18:48;6.18;;;2.13;;
26864;SDS011;40618;51.166;10.322;2023-07-31T14:21:13;6.55;;;2.58;;
26864;SDS011;40618;51.166;10.322;2023-07-31T14:23:40;7.13;;;3.00;;
26864;SDS011;40618;51.166;10.322;2023-07-31T14:26:06;5.47;;;2.28;;
26864;SDS011;40618;51.166;10.322;2023-07-31T14:28:32;5.90;;;2.35;;
26864;SDS011;40618;51.166;10.322;2023-07-31T14:30:58;5.10;;;2.60;;
26864;SDS011;40618;51.166;10.322;2023-07-31T14:33:24;5.32;;;2.75;;
26864;SDS011;40618;51.166;10.322;2023-07-31T14:35:49;6.13;;;2.80;;
26864;SDS011;40618;51.166;10.322;2023-07-31T14:38:15;5.10;;;2.30;;
26864;SDS011;40618;51.166;10.322;2023-07-31T14:40:41;9.48;;;2.90;;
26864;SDS011;40618;51.166;10.322;2023-07-31T14:43:07;6.22;;;2.08;;
26864;SDS011;40618;51.166;10.322;2023-07-31T14:45:33;4.15;;;2.03;;
26864;SDS011;40618;51.166;10.322;2023-07-31T14:47:58;4.00;;;2.05;;
26864;SDS011;40618;51.166;10.322;2023-07-31T14:50:25;5.00;;;2.17;;
26864;SDS011;40618;51.166;10.322;2023-07-31T14:52:51;7.63;;;2.60;;